Time;durP1;ratioP1;P1;durP2;ratioP2;P2;SDS_P1;SDS_P2;PMS_P1;PMS_P2;Temp;Humidity;BMP_temperature;BMP_pressure;BME280_temperature;BME280_humidity;BME280_pressure;Samples;Min_cycle;Max_cycle;Signal;HPM_P1;HPM_P2
2024/01/30 00:00:41;;;;;;;16.20;11.90;;;;;;;;;;5065368;27;98455;-74
2024/01/30 00:03:08;;;;;;;14.82;12.07;;;;;;;;;;5064525;27;99345;-75
2024/01/30 00:05:34;;;;;;;18.10;12.50;;;;;;;;;;5065260;27;99054;-74
2024/01/30 00:08:01;;;;;;;16.45;12.20;;;;;;;;;;5066875;27;98605;-74
2024/01/30 00:10:27;;;;;;;16.48;11.82;;;;;;;;;;5065656;27;100239;-74
2024/01/30 00:12:54;;;;;;;15.20;11.80;;;;;;;;;;5065949;27;98196;-74
2024/01/30 00:15:20;;;;;;;13.75;11.90;;;;;;;;;;5064836;27;99641;-74
2024/01/30 00:17:47;;;;;;;16.92;11.27;;;;;;;;;;5064252;27;98884;-74
2024/01/30 00:20:13;;;;;;;18.17;12.38;;;;;;;;;;5065902;27;98357;-74
2024/01/30 00:22:40;;;;;;;15.00;12.07;;;;;;;;;;5066630;27;98658;-74
2024/01/30 00:25:07;;;;;;;15.20;12.07;;;;;;;;;;5068271;27;99033;-74
2024/01/30 00:27:33;;;;;;;18.90;12.25;;;;;;;;;;5067500;27;98314;-74
2024/01/30 00:30:00;;;;;;;17.40;11.85;;;;;;;;;;5071203;27;99770;-74
2024/01/30 00:32:26;;;;;;;14.55;12.15;;;;;;;;;;5069083;27;98737;-74
2024/01/30 00:34:52;;;;;;;17.90;11.13;;;;;;;;;;5068948;27;99364;-74
2024/01/30 00:37:19;;;;;;;16.50;11.13;;;;;;;;;;5067731;27;100107;-74
2024/01/30 00:39:45;;;;;;;17.90;11.82;;;;;;;;;;5068069;27;98356;-74
2024/01/30 00:42:12;;;;;;;15.10;11.57;;;;;;;;;;5067224;27;98721;-74
2024/01/30 00:44:39;;;;;;;18.88;11.20;;;;;;;;;;5068867;27;100054;-74
2024/01/30 00:47:05;;;;;;;14.48;11.90;;;;;;;;;;5068792;27;98348;-74
2024/01/30 00:49:32;;;;;;;16.58;12.43;;;;;;;;;;5071264;27;99627;-74
2024/01/30 00:51:58;;;;;;;16.77;11.27;;;;;;;;;;5067020;27;98326;-75
2024/01/30 00:54:25;;;;;;;18.45;11.10;;;;;;;;;;5068032;27;99222;-74
2024/01/30 00:56:51;;;;;;;13.43;11.05;;;;;;;;;;5053439;27;100130;-74
2024/01/30 00:59:18;;;;;;;13.35;12.00;;;;;;;;;;5047476;27;98258;-74
2024/01/30 01:01:44;;;;;;;14.88;12.13;;;;;;;;;;5048370;27;99434;-74
2024/01/30 01:04:11;;;;;;;17.17;12.25;;;;;;;;;;5047020;27;100337;-74
2024/01/30 01:06:37;;;;;;;16.33;12.57;;;;;;;;;;5048041;27;98259;-74
2024/01/30 01:09:04;;;;;;;18.52;11.95;;;;;;;;;;5048181;27;99334;-74
2024/01/30 01:11:31;;;;;;;19.55;12.57;;;;;;;;;;5060609;27;100169;-74
2024/01/30 01:13:57;;;;;;;16.63;11.65;;;;;;;;;;5068005;27;99409;-75
2024/01/30 01:16:24;;;;;;;17.35;11.57;;;;;;;;;;5066596;27;98826;-75
2024/01/30 01:18:50;;;;;;;20.90;11.93;;;;;;;;;;5067137;27;98848;-75
2024/01/30 01:21:17;;;;;;;16.05;12.05;;;;;;;;;;5066578;27;98631;-75
2024/01/30 01:23:43;;;;;;;16.52;12.30;;;;;;;;;;5068316;27;100012;-75
2024/01/30 01:26:10;;;;;;;17.83;12.07;;;;;;;;;;5066053;27;98300;-75
2024/01/30 01:28:38;;;;;;;18.95;11.85;;;;;;;;;;5066218;27;99503;-75
2024/01/30 01:31:05;;;;;;;16.42;11.45;;;;;;;;;;5067595;27;100277;-74
2024/01/30 01:33:33;;;;;;;19.30;12.10;;;;;;;;;;5070704;27;98359;-74
2024/01/30 01:36:02;;;;;;;23.40;12.52;;;;;;;;;;5067399;27;99753;-75
2024/01/30 01:38:28;;;;;;;15.80;11.80;;;;;;;;;;5067341;27;98836;-75
2024/01/30 01:40:55;;;;;;;12.52;11.27;;;;;;;;;;5066881;27;99717;-75
2024/01/30 01:43:22;;;;;;;17.73;11.43;;;;;;;;;;5066877;27;100265;-75
2024/01/30 01:45:48;;;;;;;12.98;10.98;;;;;;;;;;5067622;27;98745;-74
2024/01/30 01:48:15;;;;;;;14.88;11.73;;;;;;;;;;5067839;27;99670;-74
2024/01/30 01:50:42;;;;;;;13.75;11.65;;;;;;;;;;5066849;27;99129;-75
2024/01/30 01:53:09;;;;;;;17.10;11.23;;;;;;;;;;5067000;27;98549;-74
2024/01/30 01:55:37;;;;;;;15.07;10.90;;;;;;;;;;5070034;27;99716;-74
2024/01/30 01:58:04;;;;;;;20.15;11.45;;;;;;;;;;5088085;27;98277;-75
2024/01/30 02:00:31;;;;;;;16.80;10.80;;;;;;;;;;5065339;27;98538;-75
2024/01/30 02:02:57;;;;;;;12.63;11.32;;;;;;;;;;5067295;27;100134;-75
2024/01/30 02:05:24;;;;;;;16.45;11.02;;;;;;;;;;5066923;27;98245;-75
2024/01/30 02:07:51;;;;;;;15.68;10.48;;;;;;;;;;5066910;27;99474;-74
2024/01/30 02:10:17;;;;;;;11.85;10.20;;;;;;;;;;5067113;27;99463;-75
2024/01/30 02:12:44;;;;;;;18.13;10.70;;;;;;;;;;5067378;27;98179;-75
2024/01/30 02:15:13;;;;;;;12.82;10.43;;;;;;;;;;5064681;27;99224;-75
2024/01/30 02:17:39;;;;;;;12.85;10.77;;;;;;;;;;5069557;27;98975;-75
2024/01/30 02:20:06;;;;;;;13.65;10.63;;;;;;;;;;5065609;27;99477;-74
2024/01/30 02:22:34;;;;;;;11.90;10.02;;;;;;;;;;5066324;27;100001;-74
2024/01/30 02:25:00;;;;;;;13.68;10.30;;;;;;;;;;5065309;27;99586;-74
2024/01/30 02:27:27;;;;;;;12.35;11.02;;;;;;;;;;5066705;27;98401;-74
2024/01/30 02:29:53;;;;;;;17.90;10.35;;;;;;;;;;5065145;27;98983;-74
2024/01/30 02:32:20;;;;;;;12.18;10.13;;;;;;;;;;5065277;27;98509;-76
2024/01/30 02:34:46;;;;;;;20.95;11.68;;;;;;;;;;5065642;27;98640;-73
2024/01/30 02:37:13;;;;;;;17.33;10.80;;;;;;;;;;5065777;27;98932;-74
2024/01/30 02:39:39;;;;;;;12.57;9.88;;;;;;;;;;5069188;27;98138;-74
2024/01/30 02:42:05;;;;;;;14.82;9.90;;;;;;;;;;5065990;27;99964;-74
2024/01/30 02:44:32;;;;;;;11.98;10.23;;;;;;;;;;5065740;27;98265;-74
2024/01/30 02:46:58;;;;;;;15.45;9.90;;;;;;;;;;5065521;27;99599;-74
2024/01/30 02:49:25;;;;;;;11.23;9.55;;;;;;;;;;5064035;27;99055;-74
2024/01/30 02:51:52;;;;;;;16.33;10.98;;;;;;;;;;5066514;27;98578;-74
2024/01/30 02:54:18;;;;;;;12.30;10.90;;;;;;;;;;5065970;27;99782;-74
2024/01/30 02:56:45;;;;;;;14.85;9.57;;;;;;;;;;5065363;27;100166;-74
2024/01/30 02:59:11;;;;;;;15.75;10.25;;;;;;;;;;5069719;27;98231;-74
2024/01/30 03:01:44;;;;;;;12.23;9.77;;;;;;;;;;5066388;27;99892;-74
2024/01/30 03:04:11;;;;;;;13.90;10.43;;;;;;;;;;5064265;27;99217;-74
2024/01/30 03:06:38;;;;;;;13.63;9.95;;;;;;;;;;5065999;27;98608;-74
2024/01/30 03:09:04;;;;;;;12.68;11.30;;;;;;;;;;5066091;27;99930;-74
2024/01/30 03:11:31;;;;;;;18.88;12.20;;;;;;;;;;5066166;27;99503;-74
2024/01/30 03:13:58;;;;;;;13.30;11.20;;;;;;;;;;5066096;27;99577;-75
2024/01/30 03:16:24;;;;;;;17.38;11.25;;;;;;;;;;5065860;27;99321;-74
2024/01/30 03:18:50;;;;;;;15.68;11.82;;;;;;;;;;5063239;27;99475;-74
2024/01/30 03:21:17;;;;;;;23.20;14.10;;;;;;;;;;5068206;27;99458;-74
2024/01/30 03:23:43;;;;;;;20.27;12.23;;;;;;;;;;5066631;27;98333;-74
2024/01/30 03:26:12;;;;;;;18.42;12.48;;;;;;;;;;5064781;27;99595;-75
2024/01/30 03:28:38;;;;;;;15.85;11.23;;;;;;;;;;5066186;27;100213;-74
2024/01/30 03:31:05;;;;;;;23.40;13.00;;;;;;;;;;5065464;27;98355;-74
2024/01/30 03:33:31;;;;;;;20.77;13.52;;;;;;;;;;5065513;27;99111;-74
2024/01/30 03:36:02;;;;;;;19.10;11.07;;;;;;;;;;5063146;27;99759;-74
2024/01/30 03:38:29;;;;;;;15.48;11.15;;;;;;;;;;5065025;27;98864;-74
2024/01/30 03:40:55;;;;;;;15.27;11.93;;;;;;;;;;5066279;27;99735;-74
2024/01/30 03:43:21;;;;;;;17.45;12.55;;;;;;;;;;5068466;27;99839;-74
2024/01/30 03:45:48;;;;;;;12.18;10.13;;;;;;;;;;5065120;27;99382;-74
2024/01/30 03:48:14;;;;;;;21.10;10.93;;;;;;;;;;5065590;27;99992;-74
2024/01/30 03:50:41;;;;;;;13.35;9.82;;;;;;;;;;5064214;27;98903;-74
2024/01/30 03:53:07;;;;;;;11.35;10.10;;;;;;;;;;5062824;27;98555;-74
2024/01/30 03:55:34;;;;;;;11.80;10.05;;;;;;;;;;5066845;27;100537;-74
2024/01/30 03:58:01;;;;;;;16.60;10.25;;;;;;;;;;5081341;27;99603;-74
2024/01/30 04:00:27;;;;;;;13.65;9.93;;;;;;;;;;5089386;27;99386;-74
2024/01/30 04:02:54;;;;;;;16.02;9.90;;;;;;;;;;5090079;27;100041;-74
2024/01/30 04:05:20;;;;;;;13.40;9.23;;;;;;;;;;5092348;27;98348;-74
2024/01/30 04:07:47;;;;;;;15.52;9.65;;;;;;;;;;5073251;27;99931;-74
2024/01/30 04:10:13;;;;;;;16.15;9.15;;;;;;;;;;5069070;27;98297;-74
2024/01/30 04:12:40;;;;;;;11.00;9.02;;;;;;;;;;5068301;27;99094;-74
2024/01/30 04:15:07;;;;;;;11.57;9.27;;;;;;;;;;5067332;27;99002;-74
2024/01/30 04:17:34;;;;;;;11.50;7.97;;;;;;;;;;5068994;27;98316;-74
2024/01/30 04:20:00;;;;;;;9.85;8.80;;;;;;;;;;5068012;27;98614;-74
2024/01/30 04:22:27;;;;;;;9.48;8.43;;;;;;;;;;5066917;27;100207;-74
2024/01/30 04:24:53;;;;;;;9.80;8.45;;;;;;;;;;5067960;27;98254;-74
2024/01/30 04:27:20;;;;;;;10.05;7.90;;;;;;;;;;5071049;27;99825;-75
2024/01/30 04:29:46;;;;;;;11.02;7.20;;;;;;;;;;5069095;27;98799;-74
2024/01/30 04:32:13;;;;;;;11.68;7.55;;;;;;;;;;5067876;27;99603;-75
2024/01/30 04:34:39;;;;;;;8.52;7.72;;;;;;;;;;5068146;27;100164;-74
2024/01/30 04:37:06;;;;;;;10.25;7.28;;;;;;;;;;5068283;27;98271;-74
2024/01/30 04:39:32;;;;;;;9.25;7.53;;;;;;;;;;5066583;27;99539;-74
2024/01/30 04:41:59;;;;;;;7.78;7.03;;;;;;;;;;5067775;27;99960;-74
2024/01/30 04:44:25;;;;;;;11.93;7.15;;;;;;;;;;5068842;27;98266;-75
2024/01/30 04:46:52;;;;;;;10.80;8.30;;;;;;;;;;5068307;27;98519;-75
2024/01/30 04:49:18;;;;;;;14.20;6.93;;;;;;;;;;5070434;27;98253;-75
2024/01/30 04:51:45;;;;;;;8.38;7.32;;;;;;;;;;5068989;27;99654;-75
2024/01/30 04:54:11;;;;;;;12.55;8.60;;;;;;;;;;5067038;27;99298;-75
2024/01/30 04:56:39;;;;;;;8.75;7.35;;;;;;;;;;5066946;27;98450;-73
2024/01/30 04:59:05;;;;;;;7.47;6.88;;;;;;;;;;5068135;27;99331;-74
2024/01/30 05:01:32;;;;;;;8.07;7.30;;;;;;;;;;5068159;27;99776;-74
2024/01/30 05:03:59;;;;;;;9.13;7.43;;;;;;;;;;5067552;27;98796;-74
2024/01/30 05:06:26;;;;;;;12.80;7.40;;;;;;;;;;5067010;27;99235;-75
2024/01/30 05:08:53;;;;;;;12.15;7.65;;;;;;;;;;5070939;27;99924;-74
2024/01/30 05:11:19;;;;;;;13.73;7.75;;;;;;;;;;5065835;27;99643;-74
2024/01/30 05:13:46;;;;;;;10.43;7.82;;;;;;;;;;5068562;27;99982;-74
2024/01/30 05:16:12;;;;;;;7.90;6.90;;;;;;;;;;5068064;27;97981;-74
2024/01/30 05:18:39;;;;;;;9.70;7.60;;;;;;;;;;5067107;27;99376;-74
2024/01/30 05:21:06;;;;;;;14.55;7.57;;;;;;;;;;5066984;27;100168;-74
2024/01/30 05:23:32;;;;;;;7.55;6.82;;;;;;;;;;5067440;27;98550;-73
2024/01/30 05:26:00;;;;;;;7.95;6.80;;;;;;;;;;5066965;27;98543;-74
2024/01/30 05:28:27;;;;;;;8.30;7.47;;;;;;;;;;5066650;27;100151;-73
2024/01/30 05:30:53;;;;;;;9.27;7.95;;;;;;;;;;5070691;27;98286;-73
2024/01/30 05:33:20;;;;;;;8.00;7.20;;;;;;;;;;5067943;27;100243;-73
2024/01/30 05:35:46;;;;;;;10.32;6.55;;;;;;;;;;5068100;27;98518;-74
2024/01/30 05:38:13;;;;;;;8.88;8.00;;;;;;;;;;5057365;27;99467;-74
2024/01/30 05:40:40;;;;;;;12.10;7.82;;;;;;;;;;5047280;27;100036;-73
2024/01/30 05:43:07;;;;;;;10.40;7.35;;;;;;;;;;5054790;27;98537;-73
2024/01/30 05:45:35;;;;;;;11.15;8.05;;;;;;;;;;5065018;27;99155;-74
2024/01/30 05:48:02;;;;;;;8.80;7.20;;;;;;;;;;5066669;27;99001;-74
2024/01/30 05:50:28;;;;;;;10.70;7.85;;;;;;;;;;5067608;27;98245;-73
2024/01/30 05:52:55;;;;;;;8.43;7.63;;;;;;;;;;5070486;27;99453;-73
2024/01/30 05:55:21;;;;;;;9.82;8.57;;;;;;;;;;5067590;27;98246;-75
2024/01/30 05:57:48;;;;;;;12.32;8.13;;;;;;;;;;5069736;27;99434;-75
2024/01/30 06:00:15;;;;;;;9.35;8.32;;;;;;;;;;5064916;27;100249;-74
2024/01/30 06:02:41;;;;;;;13.23;8.07;;;;;;;;;;5067767;27;98225;-75
2024/01/30 06:05:08;;;;;;;12.45;8.05;;;;;;;;;;5067359;27;99420;-75
2024/01/30 06:07:34;;;;;;;12.77;7.82;;;;;;;;;;5066428;27;99958;-73
2024/01/30 06:10:02;;;;;;;9.55;8.05;;;;;;;;;;5065274;27;98398;-73
2024/01/30 06:12:29;;;;;;;8.38;7.50;;;;;;;;;;5046274;27;98536;-74
2024/01/30 06:14:56;;;;;;;8.95;7.93;;;;;;;;;;5055701;27;100115;-74
2024/01/30 06:17:23;;;;;;;7.82;6.95;;;;;;;;;;5065850;27;100463;-76
2024/01/30 06:19:50;;;;;;;10.32;7.60;;;;;;;;;;5066158;27;100041;-74
2024/01/30 06:22:16;;;;;;;10.02;8.02;;;;;;;;;;5066896;27;98330;-74
2024/01/30 06:24:53;;;;;;;9.40;8.40;;;;;;;;;;5067500;27;98566;-74
2024/01/30 06:27:19;;;;;;;11.10;7.75;;;;;;;;;;5065011;27;99111;-73
2024/01/30 06:29:46;;;;;;;8.80;6.88;;;;;;;;;;5067271;27;98780;-76
2024/01/30 06:32:12;;;;;;;9.80;8.32;;;;;;;;;;5065338;27;99320;-73
2024/01/30 06:34:40;;;;;;;8.60;7.22;;;;;;;;;;5065474;27;99934;-73
2024/01/30 06:37:07;;;;;;;8.10;7.13;;;;;;;;;;5069966;27;98195;-74
2024/01/30 06:39:33;;;;;;;11.45;7.80;;;;;;;;;;5066704;27;99932;-74
2024/01/30 06:41:59;;;;;;;8.30;7.50;;;;;;;;;;5066112;27;98149;-74
2024/01/30 06:44:26;;;;;;;13.10;8.13;;;;;;;;;;5067140;27;100086;-74
2024/01/30 06:46:55;;;;;;;15.73;6.93;;;;;;;;;;5065987;27;99924;-75
2024/01/30 06:49:22;;;;;;;10.05;7.32;;;;;;;;;;5064460;27;98305;-75
2024/01/30 06:51:48;;;;;;;13.07;7.63;;;;;;;;;;5066413;27;99434;-74
2024/01/30 06:54:15;;;;;;;12.20;7.07;;;;;;;;;;5066469;27;100429;-74
2024/01/30 06:56:41;;;;;;;10.50;7.55;;;;;;;;;;5069287;27;98938;-74
2024/01/30 06:59:08;;;;;;;9.30;7.25;;;;;;;;;;5064871;27;99995;-74
2024/01/30 07:01:34;;;;;;;7.50;6.78;;;;;;;;;;5065604;27;99669;-74
2024/01/30 07:04:01;;;;;;;9.57;7.47;;;;;;;;;;5064457;27;98800;-74
2024/01/30 07:06:28;;;;;;;13.25;7.38;;;;;;;;;;5065788;27;99077;-74
2024/01/30 07:08:54;;;;;;;15.65;8.25;;;;;;;;;;5065147;27;98293;-74
2024/01/30 07:11:22;;;;;;;7.80;6.55;;;;;;;;;;5064363;27;99917;-74
2024/01/30 07:13:48;;;;;;;14.80;7.15;;;;;;;;;;5066243;27;99819;-75
2024/01/30 07:16:15;;;;;;;9.55;7.57;;;;;;;;;;5064916;27;98731;-74
2024/01/30 07:18:42;;;;;;;10.95;7.70;;;;;;;;;;5067516;27;98543;-74
2024/01/30 07:21:08;;;;;;;7.75;6.57;;;;;;;;;;5064758;27;98551;-74
2024/01/30 07:23:35;;;;;;;9.40;7.32;;;;;;;;;;5083455;27;99680;-74
2024/01/30 07:26:01;;;;;;;10.27;7.28;;;;;;;;;;5086895;27;99128;-75
2024/01/30 07:28:27;;;;;;;9.82;6.90;;;;;;;;;;5075134;27;98256;-74
2024/01/30 07:30:54;;;;;;;9.85;7.25;;;;;;;;;;5060582;27;99417;-74
2024/01/30 07:33:21;;;;;;;7.00;6.15;;;;;;;;;;5064905;27;99839;-74
2024/01/30 07:35:47;;;;;;;14.40;7.20;;;;;;;;;;5065475;27;98234;-74
2024/01/30 07:38:14;;;;;;;7.85;7.05;;;;;;;;;;5065490;27;99431;-74
2024/01/30 07:40:41;;;;;;;8.95;7.13;;;;;;;;;;5068615;27;99960;-74
2024/01/30 07:43:08;;;;;;;7.78;6.97;;;;;;;;;;5064974;27;99498;-74
2024/01/30 07:45:34;;;;;;;17.48;7.68;;;;;;;;;;5057247;27;100316;-74
2024/01/30 07:48:01;;;;;;;9.48;7.38;;;;;;;;;;5058421;27;99100;-74
2024/01/30 07:50:27;;;;;;;13.07;7.72;;;;;;;;;;5058263;27;99834;-74
2024/01/30 07:52:59;;;;;;;11.88;7.35;;;;;;;;;;5058386;27;100066;-74
2024/01/30 07:55:28;;;;;;;9.52;7.22;;;;;;;;;;5059027;27;98858;-75
2024/01/30 07:57:55;;;;;;;8.00;7.20;;;;;;;;;;5062252;27;99567;-73
2024/01/30 08:00:22;;;;;;;7.60;6.75;;;;;;;;;;5061163;27;99983;-74
2024/01/30 08:02:55;;;;;;;8.23;7.40;;;;;;;;;;5067460;27;98815;-74
2024/01/30 08:05:25;;;;;;;11.80;8.05;;;;;;;;;;5058784;27;100496;-74
2024/01/30 08:07:51;;;;;;;14.73;6.75;;;;;;;;;;5065890;27;98791;-75
2024/01/30 08:10:18;;;;;;;12.30;7.43;;;;;;;;;;5065444;27;99374;-75
2024/01/30 08:12:45;;;;;;;8.85;7.07;;;;;;;;;;5063046;27;100029;-75
2024/01/30 08:15:13;;;;;;;8.32;6.95;;;;;;;;;;5065332;27;98880;-75
2024/01/30 08:17:39;;;;;;;8.10;6.50;;;;;;;;;;5064978;27;99784;-75
2024/01/30 08:20:07;;;;;;;8.75;6.53;;;;;;;;;;5060634;27;99550;-75
2024/01/30 08:22:33;;;;;;;11.18;6.82;;;;;;;;;;5065558;27;98229;-75
2024/01/30 08:25:00;;;;;;;18.35;7.50;;;;;;;;;;5068372;27;99456;-75
2024/01/30 08:27:27;;;;;;;9.95;7.10;;;;;;;;;;5064087;27;98295;-75
2024/01/30 08:29:53;;;;;;;8.43;6.65;;;;;;;;;;5065180;27;98829;-75
2024/01/30 08:32:19;;;;;;;9.27;6.47;;;;;;;;;;5064093;27;100106;-77
2024/01/30 08:34:46;;;;;;;8.65;6.35;;;;;;;;;;5062937;27;99518;-76
2024/01/30 08:37:16;;;;;;;7.85;6.53;;;;;;;;;;5064964;27;99358;-78
2024/01/30 08:39:43;;;;;;;10.18;6.95;;;;;;;;;;5064134;27;99023;-75
2024/01/30 08:42:10;;;;;;;14.43;7.68;;;;;;;;;;5066825;27;98641;-76
2024/01/30 08:44:36;;;;;;;13.20;6.03;;;;;;;;;;5068223;27;98730;-75
2024/01/30 08:47:03;;;;;;;17.45;6.97;;;;;;;;;;5070921;27;100121;-75
2024/01/30 08:49:29;;;;;;;10.45;7.55;;;;;;;;;;5066420;27;99434;-76
2024/01/30 08:51:56;;;;;;;10.18;7.03;;;;;;;;;;5067298;27;100053;-75
2024/01/30 08:54:23;;;;;;;11.93;7.00;;;;;;;;;;5063463;27;98314;-75
2024/01/30 08:56:52;;;;;;;8.73;6.50;;;;;;;;;;5057946;27;99977;-75
2024/01/30 08:59:18;;;;;;;12.20;6.35;;;;;;;;;;5056111;27;100136;-75
2024/01/30 09:01:46;;;;;;;15.77;6.93;;;;;;;;;;5061820;27;100593;-75
2024/01/30 09:04:28;;;;;;;10.98;6.68;;;;;;;;;;5061411;27;99298;-75
2024/01/30 09:06:55;;;;;;;12.20;7.55;;;;;;;;;;5066420;27;99487;-75
2024/01/30 09:09:22;;;;;;;14.30;7.32;;;;;;;;;;5063243;27;100246;-75
2024/01/30 09:11:48;;;;;;;15.95;6.55;;;;;;;;;;5060158;27;99144;-75
2024/01/30 09:14:15;;;;;;;8.32;6.32;;;;;;;;;;5062528;27;99411;-75
2024/01/30 09:16:41;;;;;;;21.08;6.95;;;;;;;;;;5065782;27;99607;-75
2024/01/30 09:19:07;;;;;;;23.83;6.45;;;;;;;;;;5062320;27;100009;-75
2024/01/30 09:21:34;;;;;;;14.80;6.88;;;;;;;;;;5066321;27;98674;-74
2024/01/30 09:24:03;;;;;;;12.30;6.47;;;;;;;;;;5062743;27;99387;-75
2024/01/30 09:26:30;;;;;;;10.38;6.50;;;;;;;;;;5059167;27;98852;-75
2024/01/30 09:28:57;;;;;;;14.30;6.80;;;;;;;;;;5068742;27;98266;-75
2024/01/30 09:31:23;;;;;;;8.43;6.18;;;;;;;;;;5062776;27;99121;-75
2024/01/30 09:33:51;;;;;;;13.90;6.18;;;;;;;;;;5063432;27;98460;-74
2024/01/30 09:36:19;;;;;;;12.32;5.75;;;;;;;;;;5063088;27;100381;-75
2024/01/30 09:38:46;;;;;;;21.60;6.72;;;;;;;;;;5058512;27;99950;-74
2024/01/30 09:41:12;;;;;;;5.43;4.15;;;;;;;;;;5067684;27;98246;-75
2024/01/30 09:43:42;;;;;;;21.00;7.07;;;;;;;;;;5066745;27;98558;-75
2024/01/30 09:46:12;;;;;;;9.30;5.97;;;;;;;;;;5046206;27;99048;-75
2024/01/30 09:48:40;;;;;;;7.13;6.45;;;;;;;;;;5047164;27;98314;-75
2024/01/30 09:51:07;;;;;;;8.05;6.28;;;;;;;;;;5048924;27;99483;-75
2024/01/30 09:53:33;;;;;;;16.95;6.18;;;;;;;;;;5046864;27;98339;-75
2024/01/30 09:56:00;;;;;;;9.10;6.50;;;;;;;;;;5048255;27;99556;-75
2024/01/30 09:58:27;;;;;;;9.30;6.10;;;;;;;;;;5066005;27;99028;-75
2024/01/30 10:00:53;;;;;;;9.82;7.90;;;;;;;;;;5067655;27;98207;-75
2024/01/30 10:03:23;;;;;;;13.75;6.30;;;;;;;;;;5067805;27;99774;-74
2024/01/30 10:05:51;;;;;;;14.10;6.63;;;;;;;;;;5063629;27;99910;-75
2024/01/30 10:08:21;;;;;;;9.18;6.95;;;;;;;;;;5050626;27;99421;-74
2024/01/30 10:10:49;;;;;;;10.15;6.55;;;;;;;;;;5063405;27;98417;-74
2024/01/30 10:13:16;;;;;;;13.02;6.30;;;;;;;;;;5066975;27;100128;-74
2024/01/30 10:15:43;;;;;;;10.10;6.93;;;;;;;;;;5065212;27;99480;-74
2024/01/30 10:18:10;;;;;;;6.75;5.70;;;;;;;;;;5063016;27;100187;-74
2024/01/30 10:20:36;;;;;;;10.30;6.53;;;;;;;;;;5063535;27;98451;-74
2024/01/30 10:23:07;;;;;;;9.73;6.15;;;;;;;;;;5063772;27;99507;-74
2024/01/30 10:25:34;;;;;;;9.23;6.82;;;;;;;;;;5065614;27;98977;-74
2024/01/30 10:28:00;;;;;;;11.32;6.00;;;;;;;;;;5065314;27;98646;-75
2024/01/30 10:30:27;;;;;;;9.32;6.00;;;;;;;;;;5067025;27;99946;-75
2024/01/30 10:32:54;;;;;;;9.55;5.65;;;;;;;;;;5065924;27;99044;-74
2024/01/30 10:35:21;;;;;;;8.32;5.70;;;;;;;;;;5068487;27;98267;-76
2024/01/30 10:37:47;;;;;;;11.27;6.07;;;;;;;;;;5066309;27;98943;-74
2024/01/30 10:40:17;;;;;;;12.65;5.88;;;;;;;;;;5063302;27;98653;-75
2024/01/30 10:42:45;;;;;;;13.57;6.65;;;;;;;;;;5065858;27;99739;-76
2024/01/30 10:45:18;;;;;;;11.32;6.07;;;;;;;;;;5066243;27;100192;-74
2024/01/30 10:47:54;;;;;;;7.43;5.90;;;;;;;;;;5066202;27;98968;-75
2024/01/30 10:50:22;;;;;;;9.48;5.20;;;;;;;;;;5064802;27;98801;-75
2024/01/30 10:52:49;;;;;;;11.50;6.20;;;;;;;;;;5064543;27;99782;-75
2024/01/30 10:55:15;;;;;;;9.80;5.47;;;;;;;;;;5065264;27;98566;-75
2024/01/30 10:57:42;;;;;;;12.13;6.10;;;;;;;;;;5069546;27;99448;-76
2024/01/30 11:00:10;;;;;;;15.50;6.10;;;;;;;;;;5074673;27;98656;-75
2024/01/30 11:02:38;;;;;;;7.65;6.00;;;;;;;;;;5075034;27;99398;-75
2024/01/30 11:05:05;;;;;;;13.10;6.18;;;;;;;;;;5063911;27;98979;-75
2024/01/30 11:07:31;;;;;;;9.25;5.22;;;;;;;;;;5068379;27;98266;-74
2024/01/30 11:09:58;;;;;;;8.00;5.13;;;;;;;;;;5064277;27;99294;-74
2024/01/30 11:12:25;;;;;;;8.02;5.32;;;;;;;;;;5065245;27;99998;-74
2024/01/30 11:15:08;;;;;;;9.10;4.88;;;;;;;;;;5050812;27;98359;-75
2024/01/30 11:17:51;;;;;;;7.40;4.13;;;;;;;;;;5062071;27;98864;-76
2024/01/30 11:20:19;;;;;;;8.38;4.50;;;;;;;;;;5062898;27;99560;-75
2024/01/30 11:22:47;;;;;;;6.32;4.63;;;;;;;;;;5059058;27;98658;-77
2024/01/30 11:25:15;;;;;;;11.00;4.78;;;;;;;;;;5064637;27;100229;-76
2024/01/30 11:27:42;;;;;;;7.38;4.88;;;;;;;;;;5061351;27;101329;-76
2024/01/30 11:30:09;;;;;;;6.03;3.10;;;;;;;;;;5061836;27;99198;-75
2024/01/30 11:32:36;;;;;;;8.63;3.22;;;;;;;;;;5066499;27;99288;-76
2024/01/30 11:35:03;;;;;;;3.67;2.65;;;;;;;;;;5066539;27;98207;-75
2024/01/30 11:37:32;;;;;;;11.98;2.60;;;;;;;;;;5064866;27;99529;-76
2024/01/30 11:39:58;;;;;;;8.32;2.60;;;;;;;;;;5068833;27;99954;-77
2024/01/30 11:42:26;;;;;;;12.60;2.70;;;;;;;;;;5065549;27;98691;-76
2024/01/30 11:44:52;;;;;;;3.88;2.13;;;;;;;;;;5065343;27;100060;-75
2024/01/30 11:47:19;;;;;;;3.92;1.98;;;;;;;;;;5065979;27;98235;-76
2024/01/30 11:49:46;;;;;;;8.73;2.05;;;;;;;;;;5066237;27;99746;-76
2024/01/30 11:52:13;;;;;;;9.80;1.85;;;;;;;;;;5064854;27;99950;-78
2024/01/30 11:54:39;;;;;;;5.97;1.92;;;;;;;;;;5067026;27;98236;-76
2024/01/30 11:57:06;;;;;;;4.50;1.67;;;;;;;;;;5067994;27;99679;-75
2024/01/30 11:59:32;;;;;;;12.65;2.05;;;;;;;;;;5064192;27;99609;-76
2024/01/30 12:01:59;;;;;;;3.28;1.70;;;;;;;;;;5053821;27;98558;-76
2024/01/30 12:04:28;;;;;;;13.32;1.80;;;;;;;;;;5058739;27;99203;-77
2024/01/30 12:06:54;;;;;;;4.85;1.70;;;;;;;;;;5066216;27;98440;-74
2024/01/30 12:09:21;;;;;;;7.20;1.92;;;;;;;;;;5065882;27;100099;-76
2024/01/30 12:11:49;;;;;;;3.38;1.40;;;;;;;;;;5064558;27;98647;-77
2024/01/30 12:14:16;;;;;;;5.38;1.67;;;;;;;;;;5065163;27;99330;-77
2024/01/30 12:16:42;;;;;;;5.93;1.67;;;;;;;;;;5066219;27;98758;-76
2024/01/30 12:19:09;;;;;;;3.95;1.70;;;;;;;;;;5066705;27;99967;-76
2024/01/30 12:21:37;;;;;;;4.63;1.48;;;;;;;;;;5065254;27;98942;-76
2024/01/30 12:24:04;;;;;;;6.28;1.88;;;;;;;;;;5071780;27;99290;-75
2024/01/30 12:26:31;;;;;;;4.35;1.50;;;;;;;;;;5068492;27;98779;-75
2024/01/30 12:29:01;;;;;;;7.30;1.95;;;;;;;;;;5059824;27;99268;-76
2024/01/30 12:31:28;;;;;;;5.78;1.67;;;;;;;;;;5068094;27;100003;-75
2024/01/30 12:33:55;;;;;;;5.70;1.83;;;;;;;;;;5067560;27;98338;-76
2024/01/30 12:36:22;;;;;;;7.80;2.50;;;;;;;;;;5068987;27;99736;-77
2024/01/30 12:38:49;;;;;;;4.28;1.67;;;;;;;;;;5068504;27;99841;-76
2024/01/30 12:41:16;;;;;;;6.90;1.80;;;;;;;;;;5067592;27;98424;-76
2024/01/30 12:43:42;;;;;;;5.40;2.20;;;;;;;;;;5067300;27;98666;-75
2024/01/30 12:46:09;;;;;;;4.32;1.92;;;;;;;;;;5071575;27;99977;-76
2024/01/30 12:48:35;;;;;;;2.90;1.58;;;;;;;;;;5068086;27;99819;-76
2024/01/30 12:51:02;;;;;;;4.13;2.33;;;;;;;;;;5063885;27;100157;-77
2024/01/30 12:53:29;;;;;;;4.57;1.83;;;;;;;;;;5051299;27;98533;-77
2024/01/30 12:55:55;;;;;;;3.10;2.05;;;;;;;;;;5048306;27;99399;-77
2024/01/30 12:58:22;;;;;;;3.60;2.15;;;;;;;;;;5068410;27;100056;-77
2024/01/30 13:00:48;;;;;;;3.15;1.98;;;;;;;;;;5067979;27;98238;-77
2024/01/30 13:03:15;;;;;;;3.13;1.80;;;;;;;;;;5067548;27;98786;-74
2024/01/30 13:05:42;;;;;;;6.45;1.95;;;;;;;;;;5066839;27;99881;-79
2024/01/30 13:08:08;;;;;;;2.85;2.35;;;;;;;;;;5069811;27;98509;-76
2024/01/30 13:10:35;;;;;;;4.55;1.83;;;;;;;;;;5068297;27;99948;-76
2024/01/30 13:13:02;;;;;;;6.93;2.25;;;;;;;;;;5068187;27;98238;-76
2024/01/30 13:15:29;;;;;;;2.65;1.98;;;;;;;;;;5067667;27;99583;-76
2024/01/30 13:17:55;;;;;;;3.55;2.03;;;;;;;;;;5067294;27;99382;-76
2024/01/30 13:20:22;;;;;;;2.30;1.65;;;;;;;;;;5068133;27;98026;-76
2024/01/30 13:22:49;;;;;;;3.95;1.80;;;;;;;;;;5067616;27;99477;-75
2024/01/30 13:25:16;;;;;;;6.43;1.80;;;;;;;;;;5067817;27;100321;-76
2024/01/30 13:27:43;;;;;;;3.63;1.80;;;;;;;;;;5070090;27;98246;-75
2024/01/30 13:30:09;;;;;;;4.43;1.60;;;;;;;;;;5066284;27;99928;-76
2024/01/30 13:32:36;;;;;;;2.33;1.35;;;;;;;;;;5067557;27;98587;-76
2024/01/30 13:35:03;;;;;;;1.70;1.10;;;;;;;;;;5067534;27;99374;-76
2024/01/30 13:37:29;;;;;;;3.58;1.10;;;;;;;;;;5066793;27;100261;-75
2024/01/30 13:39:56;;;;;;;4.30;1.02;;;;;;;;;;5067572;27;98210;-76
2024/01/30 13:42:23;;;;;;;1.92;1.05;;;;;;;;;;5068170;27;99266;-76
2024/01/30 13:44:50;;;;;;;6.78;2.13;;;;;;;;;;5066747;27;99989;-76
2024/01/30 13:47:18;;;;;;;9.07;1.27;;;;;;;;;;5067678;27;98114;-76
2024/01/30 13:49:45;;;;;;;2.22;1.35;;;;;;;;;;5070398;27;98672;-76
2024/01/30 13:52:12;;;;;;;1.58;1.30;;;;;;;;;;5065819;27;98806;-77
2024/01/30 13:54:38;;;;;;;6.35;1.30;;;;;;;;;;5066502;27;98735;-76
2024/01/30 13:57:06;;;;;;;1.35;1.15;;;;;;;;;;5064911;27;98964;-76
2024/01/30 13:59:32;;;;;;;2.35;1.90;;;;;;;;;;5067191;27;98800;-76
2024/01/30 14:01:59;;;;;;;2.00;1.10;;;;;;;;;;5066593;27;98845;-77
2024/01/30 14:04:26;;;;;;;6.53;1.60;;;;;;;;;;5066790;27;100334;-75
2024/01/30 14:06:52;;;;;;;8.35;1.63;;;;;;;;;;5065822;27;98912;-75
2024/01/30 14:09:29;;;;;;;2.75;2.47;;;;;;;;;;5046610;27;98869;-76
2024/01/30 14:11:56;;;;;;;2.10;1.70;;;;;;;;;;5062942;27;100044;-76
2024/01/30 14:14:22;;;;;;;3.53;2.00;;;;;;;;;;5067618;27;99393;-75
2024/01/30 14:16:49;;;;;;;5.25;2.05;;;;;;;;;;5066627;27;100327;-75
2024/01/30 14:19:15;;;;;;;7.95;1.95;;;;;;;;;;5065986;27;98762;-75
2024/01/30 14:21:42;;;;;;;1.92;1.83;;;;;;;;;;5066224;27;99809;-76
2024/01/30 14:24:10;;;;;;;3.35;1.70;;;;;;;;;;5066296;27;99119;-76
2024/01/30 14:26:36;;;;;;;4.07;1.55;;;;;;;;;;5066628;27;98501;-75
2024/01/30 14:29:03;;;;;;;2.08;1.52;;;;;;;;;;5060262;27;100278;-73